Light Up the Dark

Age Group Results

April 11, 2015


Results By Pro-Fit Event Services LLC - Belton, TX Pro-Fit Event Services LLC


Men: Top Finishers 0- 0 1-12 13-25 26-44 45-99
Women: Top Finishers 0- 0 1-12 13-25 26-44 45-99

5K

Top

Female Open Winners

Place Name City Bib No Age Overall Total Time Pace
1 Caitlynn Curtis Wac TX 538 20 10 20:49.3 6:44/M
Top

Male Open Winners

Place Name City Bib No Age Overall Total Time Pace
1 Craig Calvert 482 22 1 16:54.9 5:28/M
Top

Female No Age Provided

Place Name City Bib No Age Overall Total Time Pace
1 Elizabeth Mendola 213 0 210 32:48.2 10:41/M
2 Charlotte Windle 388 0 234 34:01.5 11:07/M
3 Terri Wash 265 0 360 44:39.9 14:38/M
4 Stephany Harnden 41 0 362 45:23.4 15:03/M
5 Micaela Dougherty 65 0 385 48:15.2 15:49/M
6 Donna Powers 321 0 451 58:46.5 19:23/M
Top

Male No Age Provided

Place Name City Bib No Age Overall Total Time Pace
1 Sebastian Rodriguez 296 0 8 20:04.8 6:30/M
2 Michael Jeter 328 0 196 32:15.9 10:35/M
3 Kenny Stevens 324 0 433 55:58.5 18:21/M
Top

Female 12 and Under

Place Name City Bib No Age Overall Total Time Pace
1 Elaina McCulloch Crawford TX 537 8 131 29:04.7 9:31/M
2 Anna Hogue Waco TX 644 8 151 30:05.7 9:49/M
3 Mia Pena Waco TX 501 9 176 31:29.4 10:14/M
4 Meggie Morris 458 11 216 33:11.6 10:59/M
5 Allison Lee 255 10 229 33:47.5 11:02/M
6 Makenna Daniels 376 11 284 37:23.7 12:14/M
7 Hattie Hayes 245 8 296 38:17.9 12:33/M
8 Mia Gulley Waco TX 532 8 301 38:25.1 12:35/M
9 Jazlynne Valenzuela 262 5 344 42:49.2 14:03/M
10 Robyn McCulloch Crawford TX 536 12 350 43:16.2 14:06/M
11 Torres Mikayla Hewitt TX 516 8 368 46:19.0 15:02/M
12 Alison Hallal Waco TX 519 9 369 46:19.1 15:02/M
13 Angela Torres Hewit TX 514 5 375 46:46.1 15:13/M
14 Isabella Gutierrez Waco TX 539 8 389 48:57.1 15:50/M
15 Aalycia Roseburgh 106 11 406 51:54.8 17:06/M
16 Hollee Dowdle 290 11 407 51:55.2 17:06/M
17 Jordyn Gibson 91 8 439 56:27.3 18:24/M
18 Tate Hale 355 8 450 58:39.6 19:19/M
Top

Male 12 & Under

Place Name City Bib No Age Overall Total Time Pace
1 Brad Vroman Hewitt TX 541 12 59 25:37.3 8:21/M
2 Tate Brannon 141 8 89 27:31.1 8:55/M
3 Israel Estrada 258 8 137 29:35.5 9:41/M
4 Bennett Herman 85 7 159 30:27.6 9:51/M
5 Gilberto G Waco TX 633 6 178 31:35.3 10:22/M
6 James Cummins 311 9 220 33:21.8 10:46/M
7 Canyon Martin 412 7 226 33:47.0 11:06/M
8 Kaedon Smith 336 12 241 34:14.7 11:12/M
9 Eli Herman 84 10 253 35:06.9 11:32/M
10 Samuel Price 185 11 254 35:09.1 11:35/M
11 Keylon Almond 139 11 261 36:02.2 11:53/M
12 Shep Helton 37 12 275 36:59.1 12:14/M
13 Kaden Daniels 377 9 289 37:39.3 12:20/M
14 Hudson Martin 411 11 290 37:42.1 12:22/M
15 Jude Gulley Waco TX 533 6 299 38:23.9 12:35/M
16 Clayton Schulze 94 9 356 44:25.2 14:29/M
17 Noah Patrick 40 11 366 46:03.4 15:02/M
18 Thomas Adams 303 11 367 46:07.9 15:04/M
19 Christopher Hallal Waco TX 520 6 373 46:42.9 15:10/M
20 Ethan Ramirez 198 7 397 50:35.0 16:21/M
21 Maddox Billman Temple TX 507 10 411 52:58.9 17:25/M
22 Rowan Almond 138 8 412 53:03.0 17:25/M
23 Daniel G Waco TX 632 6 415 53:24.1 17:25/M
24 Jd Moran 90 10 440 56:29.2 18:25/M
25 Michael Edmondson 222 3 471 1:05:41.2 21:11/M
Top

Female 13 to 25

Place Name City Bib No Age Overall Total Time Pace
1 Caitlynn Curtis Wac TX 538 20 10 20:49.3 6:44/M
2 Kelsey Landrujm Bartonville TX 599 19 13 20:58.4 6:47/M
3 Sara Bates 264 23 20 22:01.8 7:07/M
4 Alicia Magee 117 19 26 22:23.3 7:15/M
5 Sarah Trocke Delano MN 587 20 32 23:41.6 7:40/M
6 Kristin James 259 20 33 23:42.5 7:40/M
7 Leighwilson Chappelle 284 21 35 23:48.5 7:44/M
8 Rachel Taylor 129 18 36 23:50.2 7:44/M
9 Brooke Waldersen Waco TX 609 19 38 24:07.8 7:50/M
10 Hanah Nichol 79 18 42 24:24.7 7:55/M
11 Sarah Galante 277 18 49 24:56.9 8:05/M
12 Sarah Voelker Dallas TX 623 20 50 24:57.2 8:09/M
13 Ashtyn Dewalt Kingwood TX 600 18 51 24:58.7 8:05/M
14 Rae Smith 393 19 52 25:00.3 8:06/M
15 Abigail Bristow 270 15 54 25:05.9 8:07/M
16 Anna Hanisch 80 23 58 25:15.6 8:18/M
17 Amanda Lapes 175 17 60 25:40.3 8:23/M
18 Hannah Lyles San Antonio TX 546 20 61 25:45.0 8:24/M
19 Kim Proctor 478 23 62 25:45.5 8:23/M
20 Katherine Muldoon Northfield IL 551 20 64 25:46.8 8:24/M
21 Lauren Moser 232 24 65 25:54.0 8:24/M
22 Brittany Jackson 247 21 67 25:54.8 8:24/M
23 Sami Landon Waco TX 591 17 72 26:01.3 8:28/M
24 Elizabeth McKenzie Waco TX 605 19 74 26:05.9 8:29/M
25 Sarah Weber 216 19 79 26:36.3 8:39/M
26 Kasie Meek Waco TX 504 21 80 26:43.0 8:43/M
27 Bailey Green Coppell TX 626 21 85 27:21.1 8:55/M
28 Elle Guard Friday Harbor WA 634 22 86 27:27.4 8:57/M
29 Christen Batson 342 23 88 27:28.5 9:01/M
30 Rachel Tuttle 180 19 93 27:46.6 9:01/M
31 Caitlyn Lindsey 302 18 95 27:50.6 9:03/M
32 Janessa Holles 399 19 96 27:52.8 9:06/M
33 Autumn Huegel 439 19 97 27:53.1 9:06/M
34 Lizzy Walker 95 24 99 27:58.6 9:04/M
35 Katie Sherry Waco TX 603 19 101 28:02.2 9:09/M
36 Rachel West Brentwood TN 608 18 103 28:03.7 9:10/M
37 Margeaux Dittrich 481 19 105 28:04.6 9:10/M
38 Megan Woodrow Waco TX 588 19 107 28:10.0 9:09/M
39 Ellen Whitney 61 19 108 28:10.3 9:10/M
40 Maryn Micale 72 18 109 28:10.5 9:09/M
41 Alyssa Mahler 484 19 111 28:15.6 9:15/M
42 Ashley Asselta 351 20 112 28:16.6 9:11/M
43 Priscilla Stevens 234 21 114 28:19.8 9:10/M
44 Miranda Youmans 287 15 116 28:25.2 9:13/M
45 Courtney Weber 276 24 117 28:27.2 9:15/M
46 Katie Frost 347 19 118 28:35.7 9:13/M
47 Rebekah Sinkule 394 19 119 28:38.0 9:18/M
48 Kristen Hendrickson Waco TX 614 20 120 28:42.8 9:18/M
49 Annah Smith 24 20 124 28:51.9 9:27/M
50 Natalie Chamnes Woodway TX 598 17 125 28:56.2 9:25/M
51 Cayla Weber 275 21 126 28:59.4 9:25/M
52 Brianna Prock Waco TX 549 21 127 29:01.3 9:28/M
53 Jenn Webster 203 20 128 29:03.6 9:28/M
54 Ella Herman 83 13 129 29:04.2 9:25/M
55 Alyssa Summersett 480 13 130 29:04.7 9:25/M
56 Hunter Graham Waco TX 564 20 138 29:37.3 9:41/M
57 Jennifer Bradley 64 21 141 29:44.7 9:44/M
58 Kelsey Kolinek 293 20 142 29:50.7 9:44/M
59 Elleana Roseburgh 105 13 144 29:54.1 9:40/M
60 Jane Read Waco TX 607 25 145 29:54.3 9:45/M
61 Shannon Azizi 344 24 146 29:55.1 9:45/M
62 Allison Koehn 260 21 148 29:59.4 9:46/M
63 Hanna Hornick Robinson TX 579 14 149 30:03.7 9:50/M
64 Lilly Price 184 14 152 30:11.4 9:46/M
65 Tori Schaulis 14 24 156 30:21.9 9:53/M
66 Rachel Calhoun Waco TX 570 24 157 30:22.1 9:53/M
67 Camryn Green Woodway TX 647 15 161 30:33.4 9:53/M
68 Lakyn Glasson Mcgregor TX 646 16 162 30:34.0 9:53/M
69 Maelyn Schramm 299 20 164 30:35.8 10:00/M
70 Arden Beckham Waco TX 640 20 165 30:37.2 9:59/M
71 Maddie Phenix 447 25 169 30:43.9 9:59/M
72 Rachel Neathery Waco TX 517 25 174 31:28.8 10:14/M
73 Anna Poe 473 24 183 31:50.8 10:20/M
74 Olivia Lapes Waco TX 618 13 187 31:53.1 10:25/M
75 Emily Lapes Waco TX 617 15 188 31:53.3 10:25/M
76 Stephanie Tangassi 437 19 198 32:19.5 10:33/M
77 Jeannette Sanchez 291 19 200 32:24.4 10:34/M
78 Amanda Cawood 190 21 203 32:31.6 10:33/M
79 Holli Habermann 325 14 204 32:35.0 10:50/M
80 Caroline Carothers 263 19 205 32:35.6 10:35/M
81 Sophia Vick Mcgregor TX 589 17 208 32:44.9 10:38/M
82 Emily Patrick 214 24 209 32:45.1 10:40/M
83 Andrea Shannon 56 21 211 32:49.3 10:45/M
84 Elizabeth Stevens 316 15 212 32:54.9 10:39/M
85 Brin Parnell 249 23 213 33:10.9 10:45/M
86 Amely Cardenas 460 20 222 33:23.7 10:54/M
87 Chloe Pflug 462 19 223 33:32.8 10:57/M
88 Kelcy Schmidt 99 20 224 33:46.0 10:58/M
89 Michelle Sunderland 111 21 225 33:46.5 10:59/M
90 Kylie Terry 67 20 227 33:47.1 11:00/M
91 Mikaela Sweet 168 20 228 33:47.3 10:58/M
92 Tally Blair 384 23 231 33:57.9 11:03/M
93 Angelica Phillips 44 18 235 34:03.3 11:04/M
94 Michelle Bulgerin 446 25 239 34:13.4 11:06/M
95 Amy Dearman 341 24 240 34:14.0 11:06/M
96 Christina Fakhoury 392 20 243 34:23.2 11:14/M
97 Elizabeth Anne Hanisch Waco TX 558 25 245 34:23.7 11:15/M
98 Priscila De Alba Waco TX 529 20 248 34:38.0 11:18/M
99 Lyndsey Toro Waco TX 604 18 249 34:46.3 11:20/M
100 Ali Hearon Nashville TN 624 24 251 34:51.5 11:23/M
101 Kara Young 150 24 252 34:53.1 11:24/M
102 Kristin Burns 228 21 257 35:33.2 11:38/M
103 Ruby Ma 195 21 258 35:35.5 11:39/M
104 Meg Gilbert 242 23 262 36:04.0 11:48/M
105 Calley Powell 43 21 263 36:04.2 11:47/M
106 Joelle Mellon Woodway TX 585 13 264 36:25.8 11:55/M
107 Dulce Garcia 63 22 267 36:43.8 11:59/M
108 Anna Joy Seeger 128 16 270 36:48.4 11:54/M
109 Blanca Torres 464 21 273 36:53.7 12:11/M
110 Ashley Lipscomb 151 24 276 37:05.5 12:05/M
111 Rachel Lau 100 19 277 37:13.2 12:09/M
112 Sabrina Rodriguez 101 18 278 37:14.9 12:10/M
113 Haylee Gentry 127 15 280 37:19.1 12:04/M
114 Laura Alvarez 363 21 281 37:22.2 12:07/M
115 Jordyn Ritenour 36 20 282 37:22.4 12:07/M
116 Kara Blomquist 30 22 283 37:22.5 12:07/M
117 Michelle Whipple Waco TX 635 20 285 37:24.4 12:05/M
118 Micaela Fox Waco TX 652 20 286 37:24.5 12:05/M
119 Lindsey Fryman 125 25 287 37:31.3 12:15/M
120 Emily Hinckley 147 24 306 38:51.2 12:36/M
121 Annie Luksch 114 19 309 39:08.1 12:52/M
122 Sara Beer 115 18 310 39:08.8 12:52/M
123 Jordan Granger 116 18 311 39:09.1 12:52/M
124 Alexandra Chapa 256 21 315 39:29.4 12:51/M
125 Olivia Andrade 304 19 317 39:29.7 12:51/M
126 Julie Murphy Waco TX 641 21 320 39:45.0 13:00/M
127 Kelly Mebane Waco TX 528 19 322 40:07.5 13:04/M
128 Bethany Hicks Waco TX 526 20 323 40:10.1 13:04/M
129 Payton Gray 352 20 324 40:40.0 13:23/M
130 Tess Doyle 177 20 325 40:40.5 13:23/M
131 Kimberly Woo 215 19 326 40:40.5 13:23/M
132 Jennifer Janicki 208 19 327 40:40.8 13:24/M
133 Lindsay Belus Waco TX 636 21 328 40:50.0 13:21/M
134 Brenna Yowell 487 20 329 40:51.0 13:21/M
135 Lauren Todd 241 20 333 41:30.6 13:23/M
136 Krystin Jurries 204 23 336 41:54.6 13:36/M
137 Vanessa Wiethorn 261 24 345 42:49.8 14:03/M
138 Rachel Rork Woodway TX 596 17 347 42:57.5 13:57/M
139 Emily Stubler 313 21 349 43:12.1 14:06/M
140 Stephanie Okelberry 354 21 351 43:18.0 14:08/M
141 Caroline Giles 434 21 352 43:27.4 14:14/M
142 Danielle Petty Waco TX 542 20 353 43:28.1 14:14/M
143 Christy McCaw 152 20 354 43:28.3 14:14/M
144 Aurora Gamez 402 18 363 45:25.8 14:46/M
145 Olga Castanon 401 19 364 45:26.0 14:46/M
146 Erica Kaze 372 21 370 46:29.1 15:07/M
147 Becca Williams 370 21 371 46:29.1 15:08/M
148 Fissy Jejelowo 360 20 372 46:29.4 15:07/M
149 Lindsey Bates 333 23 379 47:21.3 15:43/M
150 Stacie Breed Waco TX 557 25 381 47:45.6 15:31/M
151 Anna Peters 186 20 383 47:53.3 15:42/M
152 Branda Greening 62 20 384 48:15.0 15:49/M
153 Ashlee Meyers 295 13 387 48:53.5 16:08/M
154 Sabrina Gutierrez 452 15 388 48:56.7 15:49/M
155 Autumn Newman 380 15 392 49:54.3 16:13/M
156 Julie Anne Randolph 431 16 393 49:54.6 16:13/M
157 Katie Shaver 279 16 394 49:55.0 16:14/M
158 Ashleigh Smith 337 15 398 50:43.7 16:39/M
159 Destiny Gonzalez 332 20 403 51:34.1 16:52/M
160 Faith Lucasan Waco TX 527 19 404 51:34.4 16:52/M
161 Alyssa Sterner 419 18 405 51:45.9 16:45/M
162 Whitney Powell Waco TX 638 25 414 53:17.1 17:11/M
163 Heather Meeks Waco TX 545 23 417 53:41.4 17:24/M
164 Anna Blaine Richardson TX 543 23 418 53:41.8 17:24/M
165 Kenedy Bacon Robinson TX 583 16 421 54:38.0 17:46/M
166 Arianna Standley 395 19 429 55:37.8 18:16/M
167 Marlee Vandergrift 146 19 443 57:45.8 18:58/M
168 Jamie Wong 486 18 444 57:47.7 18:58/M
169 Kirsten Gibson 88 13 447 58:25.8 19:03/M
170 Demi Hale 301 13 453 58:56.5 19:24/M
171 Lisa Migala 171 18 460 1:00:41.3 19:56/M
172 Karys Tipton 421 16 465 1:01:49.0 20:00/M
173 Cara Weber 273 18 468 1:04:12.9 20:58/M
174 Ashley Edmondson 220 25 470 1:04:29.2 21:12/M
Top

Male 13 to 25

Place Name City Bib No Age Overall Total Time Pace
1 Craig Calvert 482 22 1 16:54.9 5:28/M
2 Grady Guest Cypress TX 650 17 2 16:56.6 5:29/M
3 Isaac Gallegos Bruceville TX 266 16 3 17:23.2 5:37/M
4 Ross Tullis Woodway TX 651 16 4 17:54.2 5:47/M
5 Juan Manuel Benitez Waco TX 530 19 5 19:12.8 6:13/M
6 John Kou Waco TX 561 22 6 19:28.6 6:18/M
7 Cameron Russell Waco TX 498 16 7 19:55.5 6:26/M
8 Isaac Shaw Waco TX 568 16 9 20:09.4 6:31/M
9 John Moreton 335 20 11 20:51.0 6:46/M
10 Lorenzo Loredo 155 19 12 20:55.3 6:45/M
11 Joshua Hammond 466 25 14 21:13.0 6:51/M
12 Matthew Stevens 314 18 15 21:14.1 6:52/M
13 Jack Steadman Waco TX 645 21 17 21:42.8 7:01/M
14 Thomas Wittner 356 22 21 22:12.3 7:11/M
15 Ross Gentry 343 23 23 22:17.4 7:13/M
16 Caleb Aguilar Hewitt TX 521 13 24 22:21.9 7:14/M
17 Johnathan Whatley Waco TX 630 23 27 22:35.1 7:21/M
18 Josh Morris 457 14 28 22:39.1 7:35/M
19 Joel Horton Lorena TX 554 15 29 22:41.4 7:20/M
20 Thaddeus James Houston TX 622 19 31 23:12.3 7:36/M
21 Alex Barrera 483 21 34 23:43.2 7:48/M
22 Scott Yaussi 239 15 39 24:14.3 7:58/M
23 Travis Platt 57 22 41 24:21.5 8:01/M
24 Lincoln Redmon 400 22 44 24:35.8 7:57/M
25 Chris Horn 397 21 45 24:36.3 7:57/M
26 Dan Fryman 124 25 46 24:45.7 8:01/M
27 Ben Cash Waco TX 569 25 56 25:09.1 8:09/M
28 Garrett Crabtree 476 25 66 25:54.7 8:31/M
29 Christopher Curry Waco TX 648 17 69 25:58.8 8:28/M
30 Alexis Ansa Hewitt TX 597 16 70 25:59.7 8:28/M
31 Ridley Holmes Waco TX 592 16 71 26:00.4 8:28/M
32 Paul Bendor Dallas TX 524 25 73 26:04.5 8:37/M
33 Joseph Proctor 176 19 78 26:34.6 8:44/M
34 Benjamin Price 183 13 81 26:57.9 8:43/M
35 Kevin Bulgerin 448 24 83 27:10.6 8:50/M
36 Richard Ashley 443 24 87 27:28.5 9:01/M
37 Beau Bishop 427 15 90 27:32.8 8:54/M
38 Brady Arnett 238 15 91 27:42.4 9:05/M
39 Andrew Yaussi 237 16 92 27:44.4 9:10/M
40 Andy Sapper Waco TX 629 20 110 28:15.0 9:15/M
41 Rich Miller 350 22 113 28:17.5 9:11/M
42 Matthew Rieger 229 16 115 28:25.1 9:12/M
43 Robert Stucky Waco TX 615 20 121 28:43.4 9:18/M
44 Landen Daniels 375 14 122 28:48.1 9:19/M
45 Daniel Davila 425 20 123 28:49.4 9:24/M
46 Cody Holstead Waco TX 619 22 139 29:40.4 9:38/M
47 Jaron Loudamy 359 13 140 29:44.0 9:36/M
48 Giles Dearman 339 24 153 30:13.0 9:49/M
49 Caleb Loudamy 357 15 154 30:13.4 9:47/M
50 Luke Stanford 154 13 163 30:34.2 9:53/M
51 Andrew Wible Waco TX 495 20 166 30:37.3 9:57/M
52 Brandon Zuercher 305 19 180 31:43.0 10:21/M
53 Jared Kloeker 488 19 181 31:49.9 10:17/M
54 Dylan Lennox 420 24 186 31:52.8 10:20/M
55 Trevor Taylor San Antonio TX 612 20 201 32:30.2 10:33/M
56 Kyle Taylor 191 21 202 32:31.0 10:33/M
57 Nick Florence 22 25 206 32:38.9 10:35/M
58 Alex Parnell 248 23 207 32:41.3 10:35/M
59 Eli Ornelas 45 19 236 34:04.1 11:04/M
60 Mark Perez 346 17 260 35:57.0 11:48/M
61 John Baker 465 20 272 36:53.1 12:11/M
62 Nelson D Schulze 93 13 294 37:50.2 12:22/M
63 Taylor Benton 366 15 339 42:36.3 13:47/M
64 Tanner Daniels 374 16 342 42:38.5 13:47/M
65 John Owen 165 16 343 42:44.5 13:49/M
66 Carson Schrotel Mcgregor TX 590 19 346 42:57.1 13:56/M
67 Christian Tucker Waco TX 631 25 416 53:24.2 17:25/M
68 Bo Hornick Waco TX 578 16 420 54:37.7 17:46/M
Top

Female 26 to 44

Place Name City Bib No Age Overall Total Time Pace
1 Morgan Powers 320 39 47 24:50.9 8:03/M
2 Charlcie Eyth 102 26 53 25:01.4 8:05/M
3 Wyndi Kadlacek 47 35 82 26:59.3 8:45/M
4 Alison Sloan 23 26 100 27:58.9 9:15/M
5 Sarah Vroman 4 38 134 29:15.4 9:31/M
6 Kaylyn Padilla Waco TX 586 26 135 29:17.5 9:39/M
7 Katie Crumley 423 26 136 29:27.5 9:35/M
8 Estrada Elvia 257 28 143 29:53.5 9:46/M
9 Vanessa Bounds Temple TX 544 30 147 29:57.3 9:45/M
10 Tiffany Hogue Waco TX 642 41 150 30:04.5 9:49/M
11 Lee Anne Brannon 140 38 167 30:40.5 9:57/M
12 Blair Gulley 442 41 171 31:10.7 10:05/M
13 Adrielle Selke Waco TX 581 37 173 31:19.0 10:15/M
14 Elisabeth Luevanos Waco TX 500 36 175 31:29.1 10:14/M
15 Cassia Triebel 414 28 179 31:36.2 10:25/M
16 Rachel Florence 21 27 182 31:50.1 10:20/M
17 Sarah Mengon 418 26 185 31:52.3 10:20/M
18 Jenna Hoff 387 30 189 31:55.0 10:22/M
19 Erika Kraus 424 33 190 31:55.8 10:24/M
20 Jenny Pang 153 31 192 31:56.2 10:24/M
21 Cynthia Robles 118 29 193 32:03.5 10:25/M
22 Maegan Jeter 136 29 195 32:14.9 10:35/M
23 Donna Powers 312 39 197 32:17.9 10:33/M
24 Tanya Puig 178 41 214 33:11.3 10:55/M
25 Rachel Childress 206 30 215 33:11.4 10:49/M
26 Angie Woodard 144 39 217 33:11.8 10:55/M
27 Misty Tindall 126 35 218 33:15.3 10:46/M
28 Rachel Lee 254 39 230 33:48.2 11:02/M
29 Kate Siems Waco TX 511 30 232 33:59.6 11:04/M
30 Ruthie Weller Waco TX 510 44 233 34:00.6 11:04/M
31 Christy Alleman 48 36 238 34:07.3 11:15/M
32 Meredith Gordon 471 26 244 34:23.3 11:14/M
33 Maria Gulley Waco TX 531 41 246 34:30.3 11:20/M
34 Jessica Santoyo 430 28 250 34:48.7 11:17/M
35 Julie Price 182 44 256 35:18.7 11:38/M
36 Teresa Mellon Hewitt TX 584 43 265 36:26.3 11:55/M
37 Christi Wargo 390 35 268 36:45.9 12:19/M
38 Shelby Herman 81 38 269 36:47.9 11:55/M
39 Rosemary Guzman 5 29 271 36:50.2 12:03/M
40 Brook Arlitt 60 33 274 36:58.7 12:09/M
41 Karla Ruiz Waco TX 643 37 279 37:18.2 12:16/M
42 Bryanna Martin 409 36 291 37:43.3 12:22/M
43 Keri Hayes 243 34 298 38:19.0 12:34/M
44 Leah Cummins 310 38 300 38:24.9 12:43/M
45 Cara Neathery 322 34 304 38:42.8 12:42/M
46 Davin Denk 134 28 308 39:03.9 12:43/M
47 Luanne Butler Hewitt TX 497 34 312 39:14.9 12:50/M
48 Samantha Kuhl Waco TX 20 28 314 39:20.1 12:53/M
49 Andrea Dodd Waco TX 508 30 316 39:29.6 12:55/M
50 Ivy Fannin 55 31 321 39:57.9 13:09/M
51 Christy Carr-Alleman 200 42 332 41:29.3 13:37/M
52 Schetisha Williams 119 36 334 41:30.7 13:37/M
53 Tiffany Bridgmon 371 32 337 42:28.5 13:43/M
54 Sabrina Zamarripa 323 37 338 42:30.0 14:05/M
55 Belkys Avelar Waco TX 547 29 340 42:37.2 13:45/M
56 Elisa Teipel 329 31 348 43:10.6 14:18/M
57 Melissa Contreras Mcgregor TX 496 34 355 44:03.6 14:23/M
58 Brandi Turner 307 32 358 44:28.5 14:31/M
59 Merryl Jones 280 42 359 44:38.9 14:38/M
60 Brenda Torres Hewitt TX 515 36 374 46:45.2 15:12/M
61 Sandra Hernandez Waco TX 518 31 378 47:18.4 15:21/M
62 Kassie Light 365 27 380 47:39.2 15:31/M
63 Cheree Meyers 294 37 386 48:53.4 16:08/M
64 Kassidy Cowser Waco TX 31 26 391 49:02.2 16:02/M
65 Laura Crider 68 28 395 50:18.9 16:23/M
66 Sylena Measles 121 29 396 50:19.4 16:23/M
67 Peggy Bonilla 250 44 399 51:00.0 16:45/M
68 Claudia Hahn 349 37 400 51:07.1 16:46/M
69 Tracie Nobles 454 36 410 52:49.5 17:21/M
70 Esperanza Perez Waco TX 637 35 413 53:16.8 17:11/M
71 Nicole Davis 6 37 422 54:45.5 18:00/M
72 Mary Connally 252 31 424 54:54.9 17:58/M
73 Kimberly Davis 103 33 428 55:34.6 18:19/M
74 Elizabeth Cochrin Waco TX 502 43 430 55:39.2 18:16/M
75 Anita Yaussi 235 36 434 56:02.7 18:30/M
76 Deana Moran 86 41 436 56:25.2 18:24/M
77 Amanda Bryant Wylie TX 625 35 437 56:25.8 18:12/M
78 Courtney Dobogai 2 35 438 56:27.1 18:13/M
79 Sarah Billman Temple TX 505 35 445 57:55.5 19:01/M
80 Lisa Almond 137 42 446 57:55.7 19:01/M
81 Melissa Bledsoe 196 33 448 58:33.0 19:16/M
82 Jenny Sullivan 194 34 449 58:33.7 19:16/M
83 Leanna Hale 300 42 452 58:49.0 19:23/M
84 Andrea Turpin 188 35 454 59:23.1 19:28/M
85 Amanda Silvers Waco TX 493 27 456 1:00:05.8 19:47/M
86 Erin Payseur 174 36 457 1:00:13.2 19:44/M
87 Leah Gorham 107 32 458 1:00:14.0 19:44/M
88 Lisa Sterner 253 42 461 1:01:03.9 20:00/M
89 Destinee Johnson 353 33 462 1:01:12.3 20:05/M
90 Emma Craig 326 34 463 1:01:12.7 20:06/M
91 Stephanie Habermann 327 44 466 1:02:06.9 20:22/M
Top

Male 26 to 44

Place Name City Bib No Age Overall Total Time Pace
1 Jady Griffin Waco TX 499 34 16 21:23.0 6:55/M
2 Noah Hutchison 470 27 18 21:46.9 7:02/M
3 Chase Jolesch 406 27 19 21:50.5 7:04/M
4 Hector Cortes 199 40 22 22:15.0 7:24/M
5 Matt Evans Waco TX 649 28 25 22:23.0 7:15/M
6 Charles Puentes Waco TX 562 43 30 22:44.8 7:23/M
7 Gerald Cruz 429 31 37 24:01.6 7:48/M
8 Lucas Griffin 179 27 40 24:21.0 7:56/M
9 Carl Gulley 472 39 48 24:56.5 8:09/M
10 Jonatan Garcia 123 29 68 25:57.7 8:24/M
11 Nathan Sloan Waco TX 576 27 75 26:11.1 8:40/M
12 Chas Hahn 348 41 77 26:26.9 8:34/M
13 Thomas Webb Waco TX 523 30 84 27:16.4 9:01/M
14 Michael Lewis Waco TX 567 43 94 27:49.0 9:03/M
15 Craig Crenshaw 315 37 102 28:02.8 9:30/M
16 Adam Price 181 41 106 28:08.2 9:08/M
17 Jeff Haslam Waco TX 309 34 132 29:14.4 9:31/M
18 Brad Milam 46 31 155 30:19.0 9:50/M
19 Tim Herman 82 41 158 30:27.4 9:51/M
20 Duke Denk 135 30 168 30:41.5 9:59/M
21 Carson Harrell 340 36 170 30:59.7 10:08/M
22 Jacob Critz 426 30 191 31:55.9 10:24/M
23 Blake Teipel 330 31 194 32:11.3 10:33/M
24 James Meyers 292 44 219 33:19.6 11:07/M
25 Charles McCulloch Crawford TX 534 36 221 33:22.2 10:54/M
26 Scott Windle 386 42 237 34:04.8 11:08/M
27 Donny Martin 410 43 242 34:18.3 11:17/M
28 Brian Alleman 201 42 247 34:34.2 11:23/M
29 Eric Wargo 391 33 266 36:43.1 12:19/M
30 Andrew Barker 306 40 292 37:46.6 12:21/M
31 Jeremy Ferrero 130 39 295 38:04.2 12:17/M
32 Austin Neathery Waco TX 525 27 303 38:42.6 12:42/M
33 David Hinckley 148 26 305 38:50.9 12:36/M
34 Michael Harris 445 37 307 39:03.0 12:50/M
35 Mike Perez 396 44 331 41:07.5 13:16/M
36 Grant Jurries 202 27 335 41:53.7 13:36/M
37 Inmar Avelar Waco TX 548 31 341 42:37.5 13:45/M
38 Johnny Ramirez 197 27 376 46:53.0 15:10/M
39 Brad Gibson 87 36 377 47:17.8 15:27/M
40 Scott Wachsmann 444 28 419 54:27.8 18:00/M
41 Luke Connally 251 32 425 54:55.4 17:58/M
42 Ben Blevins Robinson TX 552 37 426 54:55.4 17:58/M
43 Kenneth Davis 104 36 427 55:33.3 18:19/M
44 Mark Yaussi 236 43 435 56:03.2 18:30/M
45 Richard Silvers Waco TX 492 30 455 1:00:05.7 19:47/M
46 Aric Smith 440 36 464 1:01:14.2 20:56/M
47 Lance Edmondson 221 27 469 1:04:29.1 21:12/M
Top

Female 45 and Over

Place Name City Bib No Age Overall Total Time Pace
1 Vicenta Cruz 428 56 76 26:17.1 8:32/M
2 Myla Weber 271 51 133 29:15.1 9:30/M
3 Jeannie Davis 223 46 255 35:12.9 11:37/M
4 Laura Summersett 479 45 259 35:40.4 11:39/M
5 Lisa Bristow 268 51 288 37:31.4 12:15/M
6 Ofelia Gonzales 58 55 302 38:27.1 12:35/M
7 Gabriela Salas 17 99 313 39:17.6 12:52/M
8 Rebecca Clarkson 59 53 330 41:06.2 13:26/M
9 Rhonda Schulze Copperas Cove TX 92 58 361 44:58.2 14:40/M
10 Cindi Daniels 373 45 365 45:58.8 15:00/M
11 Andrea Owen 164 48 382 47:52.4 15:42/M
12 Tina Keathley 96 51 390 48:58.1 16:02/M
13 Jill Lorenz 274 62 401 51:07.3 16:46/M
14 Julie Helton 29 46 402 51:19.6 16:52/M
15 Candace Tighe 162 66 408 52:47.1 17:28/M
16 Jill Halter 172 71 409 52:47.8 17:29/M
17 Marian Kuntz 7 60 423 54:45.5 18:00/M
18 Holli Fisher 13 47 431 55:39.7 18:17/M
19 Theresa Horstman 34 51 432 55:57.7 18:22/M
20 Sylvia Miller 12 66 441 56:39.7 18:35/M
21 Nereida Martell Hewitt TX 550 60 459 1:00:21.2 19:28/M
22 Christina Davis China Spring TX 620 45 467 1:02:08.0 20:22/M
Top

Male 45 and Over

Place Name City Bib No Age Overall Total Time Pace
1 Bill Adams 453 58 43 24:25.4 7:53/M
2 Chris Bristow 267 51 55 25:06.0 8:07/M
3 Rick Bewsher 432 65 57 25:13.6 8:10/M
4 Slade Hornick Robinson TX 577 47 63 25:45.9 8:26/M
5 Mark Owen 163 50 98 27:53.5 9:15/M
6 Lee Murray Hewitt TX 503 62 104 28:04.5 9:03/M
7 Jim Weber 272 53 160 30:30.3 9:56/M
8 Bill Brooks 112 52 172 31:11.9 10:09/M
9 Jeffrey Triebel Missouri City TX 571 60 177 31:34.7 10:25/M
10 Kenneth Horstman 35 51 184 31:51.1 10:30/M
11 Dennis Horton Lorena TX 553 53 199 32:20.2 10:32/M
12 Dennis Daniels Hewitt TX 565 48 293 37:46.8 12:22/M
13 Darren Hayes 244 46 297 38:18.9 12:34/M
14 Keith. Stolarek 219 48 318 39:34.3 12:46/M
15 Kevin Morris 455 47 319 39:44.9 13:07/M
16 Nelson E Schulze 89 60 357 44:25.7 14:29/M
17 Kipp Miller 11 69 442 56:40.6 18:34/M